Terminal Aerodrome Forecast
Issued by NWS

Home | Current Version | Previous Version | Text Only | Print | Product List | Glossary On
Versions: 1 2 3 4 5 6 7 8 9 10 11 12 13 14 15 16 17 18 19 20
000
FTAK31 PANC 191726
TAFADQ
TAF
PADQ 191726Z 1918/2018 04020G26KT 5SM -RA BR FEW002 BKN009
     FM200600 03016G24KT P6SM -RA SCT009 OVC014
     FM201200 01014G20KT P6SM -RA SCT015 OVC025
     FM201500 35012KT P6SM SCT025 BKN035=

USA.gov is the U.S. government's official web portal to all federal, state and local government web resources and services.